sensor_id;sensor_type;location;lat;lon;timestamp;pressure;altitude;pressure_sealevel;temperature;humidity
49729;BME280;66333;49.798;10.968;2024-01-16T00:00:04;97228.94;;;4.53;59.61
49729;BME280;66333;49.798;10.968;2024-01-16T00:02:45;97220.75;;;4.48;59.74
49729;BME280;66333;49.798;10.968;2024-01-16T00:05:15;97216.06;;;4.52;59.38
49729;BME280;66333;49.798;10.968;2024-01-16T00:07:45;97216.91;;;4.52;59.56
49729;BME280;66333;49.798;10.968;2024-01-16T00:10:16;97215.56;;;4.48;59.60
49729;BME280;66333;49.798;10.968;2024-01-16T00:12:44;97216.66;;;4.46;59.79
49729;BME280;66333;49.798;10.968;2024-01-16T00:15:14;97210.66;;;4.45;59.72
49729;BME280;66333;49.798;10.968;2024-01-16T00:17:43;97219.78;;;4.49;59.90
49729;BME280;66333;49.798;10.968;2024-01-16T00:20:12;97225.13;;;4.48;59.88
49729;BME280;66333;49.798;10.968;2024-01-16T00:22:42;97215.56;;;4.48;59.60
49729;BME280;66333;49.798;10.968;2024-01-16T00:25:11;97223.47;;;4.47;60.09
49729;BME280;66333;49.798;10.968;2024-01-16T00:27:42;97216.50;;;4.47;59.58
49729;BME280;66333;49.798;10.968;2024-01-16T00:30:12;97229.19;;;4.50;59.47
49729;BME280;66333;49.798;10.968;2024-01-16T00:32:43;97220.59;;;4.50;59.88
49729;BME280;66333;49.798;10.968;2024-01-16T00:35:19;97221.44;;;4.41;60.27
49729;BME280;66333;49.798;10.968;2024-01-16T00:37:46;97214.75;;;4.38;59.93
49729;BME280;66333;49.798;10.968;2024-01-16T00:40:14;97227.19;;;4.44;60.05
49729;BME280;66333;49.798;10.968;2024-01-16T00:42:42;97231.25;;;4.47;59.79
49729;BME280;66333;49.798;10.968;2024-01-16T00:45:13;97233.59;;;4.40;60.05
49729;BME280;66333;49.798;10.968;2024-01-16T00:47:39;97234.00;;;4.45;59.69
49729;BME280;66333;49.798;10.968;2024-01-16T00:50:14;97243.66;;;4.43;59.63
49729;BME280;66333;49.798;10.968;2024-01-16T00:52:42;97247.22;;;4.42;59.80
49729;BME280;66333;49.798;10.968;2024-01-16T00:55:17;97255.41;;;4.47;59.92
49729;BME280;66333;49.798;10.968;2024-01-16T00:57:58;97253.81;;;4.37;59.99
49729;BME280;66333;49.798;10.968;2024-01-16T01:00:32;97244.22;;;4.47;59.78
49729;BME280;66333;49.798;10.968;2024-01-16T01:03:03;97262.25;;;4.39;60.21
49729;BME280;66333;49.798;10.968;2024-01-16T01:05:36;97250.78;;;4.41;59.91
49729;BME280;66333;49.798;10.968;2024-01-16T01:08:06;97252.16;;;4.45;59.87
49729;BME280;66333;49.798;10.968;2024-01-16T01:10:40;97262.78;;;4.42;59.83
49729;BME280;66333;49.798;10.968;2024-01-16T01:13:22;97250.78;;;4.41;59.77
49729;BME280;66333;49.798;10.968;2024-01-16T01:15:51;97255.72;;;4.44;59.77
49729;BME280;66333;49.798;10.968;2024-01-16T01:18:18;97261.97;;;4.42;60.01
49729;BME280;66333;49.798;10.968;2024-01-16T01:20:51;97276.47;;;4.44;59.78
49729;BME280;66333;49.798;10.968;2024-01-16T01:23:25;97274.38;;;4.48;59.72
49729;BME280;66333;49.798;10.968;2024-01-16T01:25:55;97279.97;;;4.43;59.97
49729;BME280;66333;49.798;10.968;2024-01-16T01:28:25;97291.44;;;4.50;59.66
49729;BME280;66333;49.798;10.968;2024-01-16T01:30:55;97283.00;;;4.48;59.83
49729;BME280;66333;49.798;10.968;2024-01-16T01:33:24;97287.34;;;4.48;59.76
49729;BME280;66333;49.798;10.968;2024-01-16T01:35:57;97289.13;;;4.47;60.00
49729;BME280;66333;49.798;10.968;2024-01-16T01:38:32;97290.09;;;4.46;59.77
49729;BME280;66333;49.798;10.968;2024-01-16T01:41:03;97298.84;;;4.45;59.85
49729;BME280;66333;49.798;10.968;2024-01-16T01:43:29;97291.06;;;4.45;60.05
49729;BME280;66333;49.798;10.968;2024-01-16T01:46:17;97297.47;;;4.41;60.20
49729;BME280;66333;49.798;10.968;2024-01-16T01:48:46;97293.91;;;4.42;60.15
49729;BME280;66333;49.798;10.968;2024-01-16T01:51:34;97301.28;;;4.47;59.89
49729;BME280;66333;49.798;10.968;2024-01-16T01:54:03;97307.28;;;4.47;59.55
49729;BME280;66333;49.798;10.968;2024-01-16T01:56:31;97307.56;;;4.44;59.96
49729;BME280;66333;49.798;10.968;2024-01-16T01:59:06;97304.56;;;4.49;60.03
49729;BME280;66333;49.798;10.968;2024-01-16T02:01:37;97320.94;;;4.49;59.69
49729;BME280;66333;49.798;10.968;2024-01-16T02:04:06;97315.47;;;4.52;59.62
49729;BME280;66333;49.798;10.968;2024-01-16T02:06:36;97319.00;;;4.51;59.52
49729;BME280;66333;49.798;10.968;2024-01-16T02:09:07;97318.19;;;4.51;59.58
49729;BME280;66333;49.798;10.968;2024-01-16T02:11:39;97328.56;;;4.51;59.57
49729;BME280;66333;49.798;10.968;2024-01-16T02:14:10;97332.28;;;4.48;59.56
49729;BME280;66333;49.798;10.968;2024-01-16T02:16:41;97337.59;;;4.47;60.00
49729;BME280;66333;49.798;10.968;2024-01-16T02:19:10;97337.47;;;4.48;59.68
49729;BME280;66333;49.798;10.968;2024-01-16T02:21:47;97332.28;;;4.48;59.74
49729;BME280;66333;49.798;10.968;2024-01-16T02:24:21;97334.31;;;4.55;59.47
49729;BME280;66333;49.798;10.968;2024-01-16T02:26:53;97344.41;;;4.58;59.57
49729;BME280;66333;49.798;10.968;2024-01-16T02:29:30;97338.41;;;4.47;59.71
49729;BME280;66333;49.798;10.968;2024-01-16T02:32:01;97342.22;;;4.43;59.92
49729;BME280;66333;49.798;10.968;2024-01-16T02:34:29;97338.69;;;4.44;60.06
49729;BME280;66333;49.798;10.968;2024-01-16T02:37:00;97345.25;;;4.48;60.05
49729;BME280;66333;49.798;10.968;2024-01-16T02:39:30;97345.25;;;4.48;59.78
49729;BME280;66333;49.798;10.968;2024-01-16T02:41:57;97356.28;;;4.50;59.81
49729;BME280;66333;49.798;10.968;2024-01-16T02:44:28;97354.94;;;4.46;59.68
49729;BME280;66333;49.798;10.968;2024-01-16T02:46:56;97353.41;;;4.44;60.04
49729;BME280;66333;49.798;10.968;2024-01-16T02:49:24;97347.41;;;4.43;59.84
49729;BME280;66333;49.798;10.968;2024-01-16T02:51:51;97357.78;;;4.43;60.29
49729;BME280;66333;49.798;10.968;2024-01-16T02:54:22;97359.16;;;4.47;59.80
49729;BME280;66333;49.798;10.968;2024-01-16T02:56:52;97357.25;;;4.49;59.99
49729;BME280;66333;49.798;10.968;2024-01-16T02:59:26;97363.09;;;4.51;59.52
49729;BME280;66333;49.798;10.968;2024-01-16T03:01:55;97373.78;;;4.48;60.16
49729;BME280;66333;49.798;10.968;2024-01-16T03:04:22;97372.13;;;4.47;59.83
49729;BME280;66333;49.798;10.968;2024-01-16T03:06:50;97376.22;;;4.50;59.71
49729;BME280;66333;49.798;10.968;2024-01-16T03:09:17;97371.47;;;4.55;59.58
49729;BME280;66333;49.798;10.968;2024-01-16T03:11:47;97373.63;;;4.50;59.82
49729;BME280;66333;49.798;10.968;2024-01-16T03:14:20;97376.38;;;4.48;59.91
49729;BME280;66333;49.798;10.968;2024-01-16T03:16:49;97377.31;;;4.47;59.80
49729;BME280;66333;49.798;10.968;2024-01-16T03:19:19;97375.53;;;4.48;59.54
49729;BME280;66333;49.798;10.968;2024-01-16T03:21:47;97379.38;;;4.53;59.54
49729;BME280;66333;49.798;10.968;2024-01-16T03:24:15;97374.44;;;4.50;59.89
49729;BME280;66333;49.798;10.968;2024-01-16T03:26:43;97381.56;;;4.48;59.99
49729;BME280;66333;49.798;10.968;2024-01-16T03:29:13;97383.31;;;4.48;60.11
49729;BME280;66333;49.798;10.968;2024-01-16T03:31:43;97379.91;;;4.47;60.08
49729;BME280;66333;49.798;10.968;2024-01-16T03:34:13;97384.00;;;4.50;59.66
49729;BME280;66333;49.798;10.968;2024-01-16T03:36:44;97391.63;;;4.51;59.64
49729;BME280;66333;49.798;10.968;2024-01-16T03:39:27;97387.03;;;4.45;59.77
49729;BME280;66333;49.798;10.968;2024-01-16T03:41:56;97385.09;;;4.47;60.21
49729;BME280;66333;49.798;10.968;2024-01-16T03:44:25;97379.63;;;4.50;59.62
49729;BME280;66333;49.798;10.968;2024-01-16T03:46:56;97387.41;;;4.50;60.02
49729;BME280;66333;49.798;10.968;2024-01-16T03:49:31;97385.09;;;4.47;60.02
49729;BME280;66333;49.798;10.968;2024-01-16T03:52:01;97383.19;;;4.49;59.81
49729;BME280;66333;49.798;10.968;2024-01-16T03:54:42;97390.00;;;4.50;59.65
49729;BME280;66333;49.798;10.968;2024-01-16T03:57:10;97391.38;;;4.55;59.66
49729;BME280;66333;49.798;10.968;2024-01-16T03:59:40;97380.44;;;4.51;59.62
49729;BME280;66333;49.798;10.968;2024-01-16T04:02:12;97378.97;;;4.48;59.79
49729;BME280;66333;49.798;10.968;2024-01-16T04:04:39;97392.22;;;4.45;59.77
49729;BME280;66333;49.798;10.968;2024-01-16T04:07:07;97390.81;;;4.41;60.12
49729;BME280;66333;49.798;10.968;2024-01-16T04:09:36;97386.88;;;4.47;59.87
49729;BME280;66333;49.798;10.968;2024-01-16T04:12:06;97385.38;;;4.44;59.77
49729;BME280;66333;49.798;10.968;2024-01-16T04:14:40;97380.19;;;4.44;59.87
49729;BME280;66333;49.798;10.968;2024-01-16T04:17:15;97373.34;;;4.43;59.62
49729;BME280;66333;49.798;10.968;2024-01-16T04:19:51;97385.63;;;4.41;60.11
49729;BME280;66333;49.798;10.968;2024-01-16T04:22:22;97379.34;;;4.44;59.66
49729;BME280;66333;49.798;10.968;2024-01-16T04:24:52;97385.38;;;4.44;59.81
49729;BME280;66333;49.798;10.968;2024-01-16T04:27:23;97371.72;;;4.42;60.08
49729;BME280;66333;49.798;10.968;2024-01-16T04:29:52;97381.28;;;4.42;59.71
49729;BME280;66333;49.798;10.968;2024-01-16T04:32:34;97381.28;;;4.42;59.71
49729;BME280;66333;49.798;10.968;2024-01-16T04:35:01;97378.28;;;4.46;59.64
49729;BME280;66333;49.798;10.968;2024-01-16T04:37:31;97372.81;;;4.40;59.79
49729;BME280;66333;49.798;10.968;2024-01-16T04:40:09;97378.53;;;4.43;59.56
49729;BME280;66333;49.798;10.968;2024-01-16T04:42:38;97373.22;;;4.45;59.42
49729;BME280;66333;49.798;10.968;2024-01-16T04:45:07;97376.38;;;4.48;59.17
49729;BME280;66333;49.798;10.968;2024-01-16T04:47:39;97377.47;;;4.56;59.09
49729;BME280;66333;49.798;10.968;2024-01-16T04:50:09;97375.13;;;4.52;59.19
49729;BME280;66333;49.798;10.968;2024-01-16T04:52:39;97383.03;;;4.51;59.03
49729;BME280;66333;49.798;10.968;2024-01-16T04:55:09;97384.00;;;4.50;59.33
49729;BME280;66333;49.798;10.968;2024-01-16T04:57:40;97389.63;;;4.55;58.95
49729;BME280;66333;49.798;10.968;2024-01-16T05:00:15;97389.19;;;4.50;59.17
49729;BME280;66333;49.798;10.968;2024-01-16T05:02:53;97396.28;;;4.48;59.14
49729;BME280;66333;49.798;10.968;2024-01-16T05:05:22;97395.19;;;4.50;58.99
49729;BME280;66333;49.798;10.968;2024-01-16T05:07:50;97389.34;;;4.48;59.04
49729;BME280;66333;49.798;10.968;2024-01-16T05:10:23;97383.19;;;4.49;59.22
49729;BME280;66333;49.798;10.968;2024-01-16T05:12:50;97374.44;;;4.50;59.10
49729;BME280;66333;49.798;10.968;2024-01-16T05:15:17;97384.81;;;4.50;59.30
49729;BME280;66333;49.798;10.968;2024-01-16T05:17:45;97382.09;;;4.42;59.17
49729;BME280;66333;49.798;10.968;2024-01-16T05:20:17;97382.91;;;4.43;59.51
49729;BME280;66333;49.798;10.968;2024-01-16T05:22:44;97380.19;;;4.44;59.28
49729;BME280;66333;49.798;10.968;2024-01-16T05:25:13;97374.44;;;4.50;59.21
49729;BME280;66333;49.798;10.968;2024-01-16T05:27:46;97386.47;;;4.51;59.20
49729;BME280;66333;49.798;10.968;2024-01-16T05:30:16;97379.63;;;4.50;58.80
49729;BME280;66333;49.798;10.968;2024-01-16T05:32:45;97383.47;;;4.46;59.33
49729;BME280;66333;49.798;10.968;2024-01-16T05:35:15;97377.47;;;4.46;59.39
49729;BME280;66333;49.798;10.968;2024-01-16T05:37:46;97380.44;;;4.51;59.06
49729;BME280;66333;49.798;10.968;2024-01-16T05:40:20;97380.44;;;4.51;58.95
49729;BME280;66333;49.798;10.968;2024-01-16T05:42:49;97371.75;;;4.62;59.05
49729;BME280;66333;49.798;10.968;2024-01-16T05:45:17;97376.63;;;4.74;58.82
49729;BME280;66333;49.798;10.968;2024-01-16T05:47:51;97379.91;;;4.67;58.69
49729;BME280;66333;49.798;10.968;2024-01-16T05:50:20;97370.91;;;4.71;58.50
49729;BME280;66333;49.798;10.968;2024-01-16T05:52:51;97374.44;;;4.60;58.73
49729;BME280;66333;49.798;10.968;2024-01-16T05:55:21;97363.81;;;4.53;59.29
49729;BME280;66333;49.798;10.968;2024-01-16T05:57:47;97372.28;;;4.56;59.36
49729;BME280;66333;49.798;10.968;2024-01-16T06:00:18;97359.44;;;4.54;58.22
49729;BME280;66333;49.798;10.968;2024-01-16T06:02:50;97364.78;;;4.62;57.14
49729;BME280;66333;49.798;10.968;2024-01-16T06:05:18;97359.69;;;4.61;57.11
49729;BME280;66333;49.798;10.968;2024-01-16T06:07:54;97358.34;;;4.57;57.65
49729;BME280;66333;49.798;10.968;2024-01-16T06:10:23;97369.69;;;4.56;57.99
49729;BME280;66333;49.798;10.968;2024-01-16T06:12:52;97370.50;;;4.56;58.11
49729;BME280;66333;49.798;10.968;2024-01-16T06:15:20;97380.06;;;4.56;58.06
49729;BME280;66333;49.798;10.968;2024-01-16T06:17:47;97388.94;;;4.53;58.18
49729;BME280;66333;49.798;10.968;2024-01-16T06:20:17;97387.03;;;4.55;58.32
49729;BME280;66333;49.798;10.968;2024-01-16T06:22:47;97395.63;;;4.56;58.11
49729;BME280;66333;49.798;10.968;2024-01-16T06:25:26;97401.91;;;4.63;57.96
49729;BME280;66333;49.798;10.968;2024-01-16T06:27:54;97404.50;;;4.63;57.96
49729;BME280;66333;49.798;10.968;2024-01-16T06:30:25;97408.88;;;4.72;57.71
49729;BME280;66333;49.798;10.968;2024-01-16T06:32:55;97412.44;;;4.71;58.02
49729;BME280;66333;49.798;10.968;2024-01-16T06:35:25;97421.84;;;4.72;57.95
49729;BME280;66333;49.798;10.968;2024-01-16T06:37:51;97418.16;;;4.65;58.14
49729;BME280;66333;49.798;10.968;2024-01-16T06:40:33;97415.56;;;4.65;57.89
49729;BME280;66333;49.798;10.968;2024-01-16T06:43:02;97423.19;;;4.57;58.34
49729;BME280;66333;49.798;10.968;2024-01-16T06:45:44;97426.06;;;4.53;58.19
49729;BME280;66333;49.798;10.968;2024-01-16T06:48:14;97430.69;;;4.50;58.60
49729;BME280;66333;49.798;10.968;2024-01-16T06:50:42;97427.97;;;4.51;58.51
49729;BME280;66333;49.798;10.968;2024-01-16T06:53:11;97427.13;;;4.51;58.71
49729;BME280;66333;49.798;10.968;2024-01-16T06:55:44;97434.78;;;4.52;58.75
49729;BME280;66333;49.798;10.968;2024-01-16T06:58:12;97430.97;;;4.57;58.37
49729;BME280;66333;49.798;10.968;2024-01-16T07:00:39;97432.63;;;4.58;58.49
49729;BME280;66333;49.798;10.968;2024-01-16T07:03:10;97430.69;;;4.60;58.34
49729;BME280;66333;49.798;10.968;2024-01-16T07:05:46;97433.44;;;4.58;58.17
49729;BME280;66333;49.798;10.968;2024-01-16T07:08:27;97435.63;;;4.53;58.76
49729;BME280;66333;49.798;10.968;2024-01-16T07:11:01;97432.63;;;4.58;58.58
49729;BME280;66333;49.798;10.968;2024-01-16T07:13:34;97443.00;;;4.58;58.29
49729;BME280;66333;49.798;10.968;2024-01-16T07:16:04;97441.06;;;4.60;58.52
49729;BME280;66333;49.798;10.968;2024-01-16T07:18:32;97440.81;;;4.63;58.48
49729;BME280;66333;49.798;10.968;2024-01-16T07:21:01;97442.03;;;4.59;58.55
49729;BME280;66333;49.798;10.968;2024-01-16T07:23:33;97455.00;;;4.59;58.51
49729;BME280;66333;49.798;10.968;2024-01-16T07:26:02;97437.53;;;4.61;58.69
49729;BME280;66333;49.798;10.968;2024-01-16T07:28:38;97436.44;;;4.63;58.18
49729;BME280;66333;49.798;10.968;2024-01-16T07:31:06;97438.22;;;4.63;58.32
49729;BME280;66333;49.798;10.968;2024-01-16T07:33:37;97434.81;;;4.62;58.16
49729;BME280;66333;49.798;10.968;2024-01-16T07:36:13;97434.94;;;4.61;58.36
49729;BME280;66333;49.798;10.968;2024-01-16T07:38:48;97434.25;;;4.59;58.19
49729;BME280;66333;49.798;10.968;2024-01-16T07:41:28;97434.00;;;4.62;58.11
49729;BME280;66333;49.798;10.968;2024-01-16T07:43:58;97424.69;;;4.59;58.42
49729;BME280;66333;49.798;10.968;2024-01-16T07:46:31;97423.47;;;4.53;58.55
49729;BME280;66333;49.798;10.968;2024-01-16T07:49:01;97439.72;;;4.56;58.33
49729;BME280;66333;49.798;10.968;2024-01-16T07:51:32;97444.91;;;4.65;58.23
49729;BME280;66333;49.798;10.968;2024-01-16T07:54:09;97442.72;;;4.61;58.08
49729;BME280;66333;49.798;10.968;2024-01-16T07:56:40;97454.75;;;4.62;58.46
49729;BME280;66333;49.798;10.968;2024-01-16T07:59:08;97456.38;;;4.63;57.98
49729;BME280;66333;49.798;10.968;2024-01-16T08:01:38;97456.63;;;4.60;58.11
49729;BME280;66333;49.798;10.968;2024-01-16T08:04:06;97455.00;;;4.59;58.15
49729;BME280;66333;49.798;10.968;2024-01-16T08:06:33;97457.34;;;4.62;58.12
49729;BME280;66333;49.798;10.968;2024-01-16T08:09:02;97466.63;;;4.64;58.39
49729;BME280;66333;49.798;10.968;2024-01-16T08:11:32;97459.66;;;4.65;58.45
49729;BME280;66333;49.798;10.968;2024-01-16T08:14:07;97477.41;;;4.60;58.45
49729;BME280;66333;49.798;10.968;2024-01-16T08:16:37;97473.31;;;4.57;58.38
49729;BME280;66333;49.798;10.968;2024-01-16T08:19:05;97477.41;;;4.60;58.42
49729;BME280;66333;49.798;10.968;2024-01-16T08:21:35;97473.84;;;4.61;58.45
49729;BME280;66333;49.798;10.968;2024-01-16T08:24:01;97480.69;;;4.62;58.42
49729;BME280;66333;49.798;10.968;2024-01-16T08:26:32;97478.78;;;4.64;58.16
49729;BME280;66333;49.798;10.968;2024-01-16T08:29:12;97487.25;;;4.66;58.16
49729;BME280;66333;49.798;10.968;2024-01-16T08:31:50;97475.91;;;4.67;57.97
49729;BME280;66333;49.798;10.968;2024-01-16T08:34:18;97480.41;;;4.65;58.32
49729;BME280;66333;49.798;10.968;2024-01-16T08:36:50;97479.31;;;4.67;57.97
49729;BME280;66333;49.798;10.968;2024-01-16T08:39:19;97483.28;;;4.62;58.32
49729;BME280;66333;49.798;10.968;2024-01-16T08:41:49;97480.41;;;4.65;58.40
49729;BME280;66333;49.798;10.968;2024-01-16T08:44:33;97485.31;;;4.68;58.42
49729;BME280;66333;49.798;10.968;2024-01-16T08:47:00;97479.88;;;4.71;58.15
49729;BME280;66333;49.798;10.968;2024-01-16T08:49:30;97477.00;;;4.74;57.77
49729;BME280;66333;49.798;10.968;2024-01-16T08:52:11;97479.06;;;4.70;57.98
49729;BME280;66333;49.798;10.968;2024-01-16T08:54:43;97479.06;;;4.70;57.99
49729;BME280;66333;49.798;10.968;2024-01-16T08:57:10;97485.75;;;4.73;57.99
49729;BME280;66333;49.798;10.968;2024-01-16T08:59:44;97480.56;;;4.73;57.86
49729;BME280;66333;49.798;10.968;2024-01-16T09:02:15;97483.00;;;4.65;58.11
49729;BME280;66333;49.798;10.968;2024-01-16T09:04:41;97482.19;;;4.74;57.77
49729;BME280;66333;49.798;10.968;2024-01-16T09:07:14;97480.28;;;4.66;58.05
49729;BME280;66333;49.798;10.968;2024-01-16T09:09:45;97493.25;;;4.66;58.20
49729;BME280;66333;49.798;10.968;2024-01-16T09:12:16;97490.53;;;4.68;58.03
49729;BME280;66333;49.798;10.968;2024-01-16T09:14:51;97498.06;;;4.71;58.16
49729;BME280;66333;49.798;10.968;2024-01-16T09:17:20;97493.53;;;4.73;58.16
49729;BME280;66333;49.798;10.968;2024-01-16T09:19:49;97501.31;;;4.73;58.18
49729;BME280;66333;49.798;10.968;2024-01-16T09:22:15;97502.28;;;4.72;58.14
49729;BME280;66333;49.798;10.968;2024-01-16T09:24:43;97500.38;;;4.74;57.87
49729;BME280;66333;49.798;10.968;2024-01-16T09:27:14;97507.47;;;4.72;58.35
49729;BME280;66333;49.798;10.968;2024-01-16T09:29:43;97511.84;;;4.71;58.04
49729;BME280;66333;49.798;10.968;2024-01-16T09:32:17;97503.09;;;4.72;58.24
49729;BME280;66333;49.798;10.968;2024-01-16T09:34:47;97500.66;;;4.71;58.09
49729;BME280;66333;49.798;10.968;2024-01-16T09:37:16;97494.75;;;4.69;58.24
49729;BME280;66333;49.798;10.968;2024-01-16T09:39:58;97499.13;;;4.78;57.95
49729;BME280;66333;49.798;10.968;2024-01-16T09:42:29;97505.28;;;4.77;57.78
49729;BME280;66333;49.798;10.968;2024-01-16T09:45:04;97511.84;;;4.71;58.23
49729;BME280;66333;49.798;10.968;2024-01-16T09:47:33;97510.50;;;4.96;57.65
49729;BME280;66333;49.798;10.968;2024-01-16T09:50:08;97511.88;;;5.00;57.37
49729;BME280;66333;49.798;10.968;2024-01-16T09:52:39;97508.31;;;5.01;57.76
49729;BME280;66333;49.798;10.968;2024-01-16T09:55:08;97511.03;;;5.00;57.47
49729;BME280;66333;49.798;10.968;2024-01-16T09:57:39;97503.41;;;4.98;57.62
49729;BME280;66333;49.798;10.968;2024-01-16T10:00:10;97503.41;;;4.98;57.64
49729;BME280;66333;49.798;10.968;2024-01-16T10:02:42;97507.50;;;4.91;58.12
49729;BME280;66333;49.798;10.968;2024-01-16T10:05:11;97504.47;;;4.86;57.94
49729;BME280;66333;49.798;10.968;2024-01-16T10:07:41;97505.03;;;4.80;58.33
49729;BME280;66333;49.798;10.968;2024-01-16T10:10:10;97504.22;;;4.79;58.18
49729;BME280;66333;49.798;10.968;2024-01-16T10:12:38;97517.88;;;4.81;58.17
49729;BME280;66333;49.798;10.968;2024-01-16T10:15:09;97515.66;;;4.77;58.45
49729;BME280;66333;49.798;10.968;2024-01-16T10:17:51;97512.09;;;4.78;58.25
49729;BME280;66333;49.798;10.968;2024-01-16T10:20:32;97504.31;;;4.78;58.44
49729;BME280;66333;49.798;10.968;2024-01-16T10:23:00;97500.09;;;4.77;58.37
49729;BME280;66333;49.798;10.968;2024-01-16T10:25:30;97500.38;;;4.74;58.39
49729;BME280;66333;49.798;10.968;2024-01-16T10:28:04;97500.38;;;4.74;58.38
49729;BME280;66333;49.798;10.968;2024-01-16T10:30:35;97500.91;;;4.77;58.60
49729;BME280;66333;49.798;10.968;2024-01-16T10:33:26;97491.47;;;4.76;58.29
49729;BME280;66333;49.798;10.968;2024-01-16T10:36:10;97490.94;;;4.73;58.56
49729;BME280;66333;49.798;10.968;2024-01-16T10:38:37;97486.44;;;4.75;58.57
49729;BME280;66333;49.798;10.968;2024-01-16T10:41:08;97485.91;;;4.81;58.51
49729;BME280;66333;49.798;10.968;2024-01-16T10:43:39;97488.06;;;4.76;58.34
49729;BME280;66333;49.798;10.968;2024-01-16T10:46:11;97485.34;;;4.77;58.62
49729;BME280;66333;49.798;10.968;2024-01-16T10:48:43;97483.16;;;4.92;57.73
49729;BME280;66333;49.798;10.968;2024-01-16T10:51:19;97489.59;;;4.88;57.34
49729;BME280;66333;49.798;10.968;2024-01-16T10:53:49;97481.09;;;4.86;56.89
49729;BME280;66333;49.798;10.968;2024-01-16T10:56:19;97483.84;;;4.85;57.11
49729;BME280;66333;49.798;10.968;2024-01-16T10:59:05;97481.66;;;4.80;57.22
49729;BME280;66333;49.798;10.968;2024-01-16T11:01:37;97489.72;;;4.77;57.58
49729;BME280;66333;49.798;10.968;2024-01-16T11:04:07;97481.25;;;4.85;57.64
49729;BME280;66333;49.798;10.968;2024-01-16T11:06:37;97488.91;;;4.86;57.04
49729;BME280;66333;49.798;10.968;2024-01-16T11:09:09;97491.91;;;4.91;57.35
49729;BME280;66333;49.798;10.968;2024-01-16T11:11:39;97484.56;;;4.96;57.12
49729;BME280;66333;49.798;10.968;2024-01-16T11:14:11;97480.84;;;4.99;56.90
49729;BME280;66333;49.798;10.968;2024-01-16T11:16:40;97484.13;;;4.91;57.17
49729;BME280;66333;49.798;10.968;2024-01-16T11:19:15;97484.66;;;4.95;57.30
49729;BME280;66333;49.798;10.968;2024-01-16T11:21:47;97481.25;;;4.94;57.06
49729;BME280;66333;49.798;10.968;2024-01-16T11:24:18;97474.72;;;4.90;57.08
49729;BME280;66333;49.798;10.968;2024-01-16T11:26:48;97469.81;;;4.87;57.39
49729;BME280;66333;49.798;10.968;2024-01-16T11:29:34;97471.69;;;4.85;57.36
49729;BME280;66333;49.798;10.968;2024-01-16T11:32:07;97476.88;;;4.85;57.72
49729;BME280;66333;49.798;10.968;2024-01-16T11:34:56;97469.78;;;5.06;56.46
49729;BME280;66333;49.798;10.968;2024-01-16T11:37:29;97474.53;;;5.21;56.44
49729;BME280;66333;49.798;10.968;2024-01-16T11:40:21;97478.09;;;5.29;56.35
49729;BME280;66333;49.798;10.968;2024-01-16T11:42:48;97481.38;;;5.41;56.21
49729;BME280;66333;49.798;10.968;2024-01-16T11:45:51;97479.84;;;5.48;56.37
49729;BME280;66333;49.798;10.968;2024-01-16T11:48:22;97484.47;;;5.54;56.39
49729;BME280;66333;49.798;10.968;2024-01-16T11:51:22;97480.66;;;5.58;56.41
49729;BME280;66333;49.798;10.968;2024-01-16T11:53:49;97473.53;;;5.60;56.71
49729;BME280;66333;49.798;10.968;2024-01-16T11:56:50;97477.75;;;5.61;56.62
49729;BME280;66333;49.798;10.968;2024-01-16T11:59:47;97475.44;;;5.68;56.71
49729;BME280;66333;49.798;10.968;2024-01-16T12:02:34;97472.41;;;5.73;56.65
49729;BME280;66333;49.798;10.968;2024-01-16T12:05:33;97463.22;;;5.78;56.55
49729;BME280;66333;49.798;10.968;2024-01-16T12:08:03;97455.97;;;5.82;56.84
49729;BME280;66333;49.798;10.968;2024-01-16T12:10:32;97454.03;;;5.84;56.67
49729;BME280;66333;49.798;10.968;2024-01-16T12:13:00;97453.75;;;5.87;56.86
49729;BME280;66333;49.798;10.968;2024-01-16T12:15:42;97442.69;;;5.85;56.93
49729;BME280;66333;49.798;10.968;2024-01-16T12:18:18;97442.97;;;5.91;56.88
49729;BME280;66333;49.798;10.968;2024-01-16T12:20:48;97435.69;;;5.95;56.62
49729;BME280;66333;49.798;10.968;2024-01-16T12:23:18;97436.34;;;5.97;56.96
49729;BME280;66333;49.798;10.968;2024-01-16T12:25:52;97428.28;;;6.00;56.82
49729;BME280;66333;49.798;10.968;2024-01-16T12:28:21;97426.03;;;6.05;56.55
49729;BME280;66333;49.798;10.968;2024-01-16T12:30:51;97420.56;;;6.08;56.47
49729;BME280;66333;49.798;10.968;2024-01-16T12:33:22;97413.75;;;6.07;56.48
49729;BME280;66333;49.798;10.968;2024-01-16T12:36:01;97411.22;;;6.15;56.25
49729;BME280;66333;49.798;10.968;2024-01-16T12:38:37;97407.66;;;6.16;56.42
49729;BME280;66333;49.798;10.968;2024-01-16T12:41:08;97407.66;;;6.16;56.70
49729;BME280;66333;49.798;10.968;2024-01-16T12:43:37;97398.59;;;6.20;56.36
49729;BME280;66333;49.798;10.968;2024-01-16T12:46:03;97398.59;;;6.20;56.33
49729;BME280;66333;49.798;10.968;2024-01-16T12:48:33;97393.38;;;6.20;56.67
49729;BME280;66333;49.798;10.968;2024-01-16T12:50:59;97394.06;;;6.22;56.59
49729;BME280;66333;49.798;10.968;2024-01-16T12:53:31;97398.75;;;6.19;56.81
49729;BME280;66333;49.798;10.968;2024-01-16T12:56:08;97404.63;;;6.21;56.58
49729;BME280;66333;49.798;10.968;2024-01-16T12:58:38;97395.84;;;6.22;56.64
49729;BME280;66333;49.798;10.968;2024-01-16T13:01:24;97389.56;;;6.25;56.64
49729;BME280;66333;49.798;10.968;2024-01-16T13:03:52;97399.00;;;6.26;56.54
49729;BME280;66333;49.798;10.968;2024-01-16T13:06:22;97396.66;;;6.22;56.48
49729;BME280;66333;49.798;10.968;2024-01-16T13:09:04;97400.53;;;6.18;56.83
49729;BME280;66333;49.798;10.968;2024-01-16T13:11:51;97391.09;;;6.17;56.79
49729;BME280;66333;49.798;10.968;2024-01-16T13:14:20;97388.50;;;6.17;56.78
49729;BME280;66333;49.798;10.968;2024-01-16T13:16:52;97389.56;;;6.25;56.55
49729;BME280;66333;49.798;10.968;2024-01-16T13:19:23;97380.78;;;6.26;56.52
49729;BME280;66333;49.798;10.968;2024-01-16T13:21:53;97376.53;;;6.25;56.52
49729;BME280;66333;49.798;10.968;2024-01-16T13:24:23;97370.66;;;6.22;55.93